createdAt,value
2022-09-04T00:00:58.503Z,1.50
2022-09-04T00:02:32.108Z,1.58
2022-09-04T00:04:02.038Z,1.63
2022-09-04T00:05:30.529Z,1.10
2022-09-04T00:07:02.072Z,1.17
2022-09-04T00:08:40.998Z,0.98
2022-09-04T00:10:12.271Z,1.20
2022-09-04T00:11:44.867Z,1.20
2022-09-04T00:13:11.493Z,1.10
2022-09-04T00:14:42.443Z,1.05
2022-09-04T00:16:09.805Z,1.10
2022-09-04T00:17:37.705Z,1.45
2022-09-04T00:19:04.762Z,1.40
2022-09-04T00:20:35.670Z,1.00
2022-09-04T00:21:59.911Z,1.25
2022-09-04T00:23:29.050Z,1.30
2022-09-04T00:24:57.133Z,1.38
2022-09-04T00:26:28.916Z,1.30
2022-09-04T00:28:04.884Z,1.05
2022-09-04T00:29:39.089Z,1.15
2022-09-04T00:31:08.373Z,1.15
2022-09-04T00:32:38.930Z,0.98
2022-09-04T00:34:09.251Z,1.50
2022-09-04T00:35:33.143Z,1.20
2022-09-04T00:37:01.321Z,1.02
2022-09-04T00:38:37.540Z,1.08
2022-09-04T00:40:05.277Z,1.15
2022-09-04T00:41:31.003Z,1.20
2022-09-04T00:43:08.476Z,1.10
2022-09-04T00:44:47.196Z,1.30
2022-09-04T00:46:31.266Z,1.70
2022-09-04T00:48:34.522Z,1.30
2022-09-04T00:50:11.914Z,0.95
2022-09-04T00:51:43.309Z,0.88
2022-09-04T00:53:17.644Z,1.05
2022-09-04T00:54:49.285Z,1.33
2022-09-04T00:56:30.154Z,1.33
2022-09-04T00:58:10.833Z,1.10
2022-09-04T00:59:49.122Z,1.00
2022-09-04T01:01:17.428Z,1.20
2022-09-04T01:03:09.385Z,1.30
2022-09-04T01:04:39.375Z,1.10
2022-09-04T01:06:21.339Z,1.17
2022-09-04T01:07:56.650Z,1.48
2022-09-04T01:09:31.646Z,1.20
2022-09-04T01:11:06.112Z,1.10
2022-09-04T01:12:36.547Z,0.95
2022-09-04T01:14:06.178Z,1.08
2022-09-04T01:15:37.691Z,1.50
2022-09-04T01:17:06.460Z,1.08
2022-09-04T01:18:38.171Z,1.38
2022-09-04T01:20:07.997Z,1.10
2022-09-04T01:21:59.459Z,1.20
2022-09-04T01:23:46.509Z,1.27
2022-09-04T01:25:32.152Z,1.00
2022-09-04T01:27:02.594Z,0.80
2022-09-04T01:28:30.916Z,0.90
2022-09-04T01:30:01.023Z,1.08
2022-09-04T01:31:28.177Z,1.02
2022-09-04T01:32:59.938Z,1.00
2022-09-04T01:34:36.351Z,1.27
2022-09-04T01:36:03.826Z,1.20
2022-09-04T01:37:36.191Z,1.25
2022-09-04T01:39:01.332Z,1.30
2022-09-04T01:40:36.034Z,1.65
2022-09-04T01:42:04.627Z,1.02
2022-09-04T01:43:27.143Z,1.27
2022-09-04T01:44:50.656Z,0.90
2022-09-04T01:46:31.619Z,1.30
2022-09-04T01:47:59.096Z,1.10
2022-09-04T01:49:28.778Z,1.05
2022-09-04T01:50:55.469Z,1.20
2022-09-04T01:52:37.834Z,1.27
2022-09-04T01:54:13.354Z,1.02
2022-09-04T01:55:43.299Z,1.00
2022-09-04T01:57:16.350Z,0.77
2022-09-04T01:58:45.162Z,1.10
2022-09-04T02:00:10.238Z,1.02
2022-09-04T02:01:40.555Z,1.20
2022-09-04T02:03:09.628Z,1.20
2022-09-04T02:04:38.564Z,1.33
2022-09-04T02:06:05.274Z,0.98
2022-09-04T02:07:34.104Z,0.90
2022-09-04T02:09:19.417Z,1.00
2022-09-04T02:10:49.979Z,0.90
2022-09-04T02:12:20.124Z,1.08
2022-09-04T02:14:04.231Z,1.58
2022-09-04T02:15:33.982Z,1.00
2022-09-04T02:17:08.032Z,1.10
2022-09-04T02:18:44.337Z,0.90
2022-09-04T02:20:17.836Z,1.17
2022-09-04T02:21:44.060Z,0.80
2022-09-04T02:23:13.601Z,1.10
2022-09-04T02:24:40.823Z,0.70
2022-09-04T02:26:08.978Z,1.27
2022-09-04T02:27:40.741Z,1.27
2022-09-04T02:29:09.585Z,1.10
2022-09-04T02:30:36.828Z,0.90
2022-09-04T02:32:06.296Z,0.60
2022-09-04T02:33:38.049Z,0.95
2022-09-04T02:35:09.824Z,0.90
2022-09-04T02:36:39.687Z,1.17
2022-09-04T02:38:10.987Z,1.00
2022-09-04T02:39:42.593Z,0.98
2022-09-04T02:41:12.285Z,1.10
2022-09-04T02:42:41.702Z,1.00
2022-09-04T02:44:26.574Z,1.25
2022-09-04T02:45:55.587Z,1.15
2022-09-04T02:47:29.067Z,1.13
2022-09-04T02:49:02.243Z,0.82
2022-09-04T02:50:39.415Z,1.10
2022-09-04T02:52:14.005Z,1.00
2022-09-04T02:53:42.137Z,0.80
2022-09-04T02:55:21.424Z,1.00
2022-09-04T02:56:52.693Z,1.00
2022-09-04T02:58:26.059Z,0.88
2022-09-04T02:59:56.837Z,0.82
2022-09-04T03:01:25.693Z,0.77
2022-09-04T03:02:54.045Z,0.90
2022-09-04T03:04:21.546Z,0.80
2022-09-04T03:05:51.718Z,1.42
2022-09-04T03:07:19.348Z,1.08
2022-09-04T03:08:46.232Z,0.95
2022-09-04T03:10:13.030Z,0.98
2022-09-04T03:11:39.350Z,1.10
2022-09-04T03:13:06.990Z,0.80
2022-09-04T03:14:35.291Z,0.77
2022-09-04T03:16:05.582Z,0.90
2022-09-04T03:17:33.380Z,1.08
2022-09-04T03:19:11.673Z,0.90
2022-09-04T03:20:52.651Z,1.10
2022-09-04T03:22:21.167Z,0.90
2022-09-04T03:23:49.631Z,1.02
2022-09-04T03:25:46.860Z,0.85
2022-09-04T03:27:13.034Z,0.80
2022-09-04T03:28:45.946Z,0.88
2022-09-04T03:30:12.890Z,1.00
2022-09-04T03:31:41.966Z,1.10
2022-09-04T03:33:08.860Z,0.93
2022-09-04T03:34:41.114Z,0.80
2022-09-04T03:36:10.380Z,1.05
2022-09-04T03:37:55.383Z,1.00
2022-09-04T03:39:23.465Z,0.90
2022-09-04T03:40:50.924Z,0.95
2022-09-04T03:42:18.820Z,0.80
2022-09-04T03:43:57.662Z,1.00
2022-09-04T03:45:29.705Z,1.00
2022-09-04T03:47:00.742Z,0.82
2022-09-04T03:48:36.454Z,0.80
2022-09-04T03:50:08.264Z,0.90
2022-09-04T03:51:38.229Z,0.85
2022-09-04T03:53:09.198Z,1.05
2022-09-04T03:54:45.372Z,0.88
2022-09-04T03:56:39.272Z,1.08
2022-09-04T03:58:09.994Z,0.77
2022-09-04T03:59:46.734Z,1.20
2022-09-04T04:01:24.145Z,0.73
2022-09-04T04:03:07.584Z,0.90
2022-09-04T04:04:45.280Z,1.05
2022-09-04T04:06:18.607Z,1.10
2022-09-04T04:07:48.814Z,1.00
2022-09-04T04:09:31.538Z,0.63
2022-09-04T04:11:00.851Z,0.90
2022-09-04T04:12:42.545Z,1.00
2022-09-04T04:14:25.293Z,1.08
2022-09-04T04:15:57.915Z,1.00
2022-09-04T04:17:43.975Z,0.90
2022-09-04T04:19:27.658Z,0.93
2022-09-04T04:20:58.780Z,1.13
2022-09-04T04:22:35.039Z,0.80
2022-09-04T04:24:28.939Z,1.08
2022-09-04T04:26:09.102Z,0.93
2022-09-04T04:27:46.478Z,0.63
2022-09-04T04:29:45.094Z,0.82
2022-09-04T04:31:15.816Z,1.00
2022-09-04T04:33:08.388Z,0.77
2022-09-04T04:34:36.813Z,0.93
2022-09-04T04:36:07.709Z,0.88
2022-09-04T04:37:38.805Z,0.63
2022-09-04T04:39:19.760Z,0.90
2022-09-04T04:41:06.508Z,0.82
2022-09-04T04:42:35.294Z,0.77
2022-09-04T04:44:08.685Z,0.90
2022-09-04T04:45:50.885Z,1.20
2022-09-04T04:47:20.345Z,1.10
2022-09-04T04:49:15.940Z,0.70
2022-09-04T04:50:46.045Z,0.75
2022-09-04T04:52:30.400Z,1.10
2022-09-04T04:53:58.388Z,0.77
2022-09-04T04:55:31.330Z,0.95
2022-09-04T04:56:57.764Z,0.93
2022-09-04T04:58:48.167Z,1.02
2022-09-04T05:00:18.631Z,0.93
2022-09-04T05:01:45.617Z,0.93
2022-09-04T05:03:16.775Z,0.98
2022-09-04T05:04:47.341Z,0.60
2022-09-04T05:06:13.893Z,0.98
2022-09-04T05:07:45.496Z,1.00
2022-09-04T05:09:14.882Z,1.17
2022-09-04T05:10:40.836Z,1.15
2022-09-04T05:12:10.503Z,1.20
2022-09-04T05:13:39.821Z,1.30
2022-09-04T05:15:09.511Z,0.93
2022-09-04T05:16:43.447Z,1.00
2022-09-04T05:18:12.098Z,0.85
2022-09-04T05:19:39.882Z,0.80
2022-09-04T05:21:10.896Z,1.20
2022-09-04T05:22:37.651Z,1.00
2022-09-04T05:24:04.623Z,0.80
2022-09-04T05:25:36.669Z,0.98
2022-09-04T05:27:04.204Z,1.00
2022-09-04T05:28:32.878Z,0.93
2022-09-04T05:30:00.892Z,1.10
2022-09-04T05:31:33.841Z,1.00
2022-09-04T05:33:08.210Z,0.82
2022-09-04T05:34:37.196Z,1.00
2022-09-04T05:36:07.635Z,1.00
2022-09-04T05:37:36.348Z,0.75
2022-09-04T05:39:07.818Z,0.93
2022-09-04T05:40:34.167Z,1.00
2022-09-04T05:42:11.243Z,1.17
2022-09-04T05:44:03.329Z,1.60
2022-09-04T05:45:30.597Z,1.10
2022-09-04T05:47:04.361Z,0.80
2022-09-04T05:48:31.713Z,1.25
2022-09-04T05:50:10.257Z,0.60
2022-09-04T05:51:53.320Z,0.90
2022-09-04T05:53:49.718Z,1.02
2022-09-04T05:55:31.954Z,0.80
2022-09-04T05:57:33.386Z,0.80
2022-09-04T05:59:08.926Z,1.02
2022-09-04T06:00:38.664Z,1.40
2022-09-04T06:02:18.219Z,1.25
2022-09-04T06:04:07.903Z,1.10
2022-09-04T06:05:36.728Z,1.10
2022-09-04T06:07:08.455Z,0.75
2022-09-04T06:08:38.662Z,1.15
2022-09-04T06:10:07.845Z,1.00
2022-09-04T06:11:42.940Z,0.90
2022-09-04T06:13:41.926Z,1.27
2022-09-04T06:15:15.180Z,1.10
2022-09-04T06:16:48.773Z,1.20
2022-09-04T06:18:24.407Z,1.00
2022-09-04T06:20:03.091Z,0.98
2022-09-04T06:22:16.083Z,1.05
2022-09-04T06:24:02.096Z,1.30
2022-09-04T06:25:54.495Z,1.02
2022-09-04T06:27:25.091Z,1.35
2022-09-04T06:29:31.252Z,0.95
2022-09-04T06:30:59.724Z,1.45
2022-09-04T06:32:34.254Z,1.10
2022-09-04T06:34:02.067Z,0.98
2022-09-04T06:35:47.121Z,1.10
2022-09-04T06:37:17.664Z,1.17
2022-09-04T06:38:50.149Z,1.33
2022-09-04T06:40:27.829Z,1.20
2022-09-04T06:42:08.800Z,1.60
2022-09-04T06:43:38.216Z,1.20
2022-09-04T06:45:12.814Z,1.30
2022-09-04T06:46:41.445Z,1.00
2022-09-04T06:48:19.836Z,1.20
2022-09-04T06:49:59.399Z,1.40
2022-09-04T06:51:32.796Z,1.30
2022-09-04T06:53:09.085Z,1.30
2022-09-04T06:54:43.881Z,1.27
2022-09-04T06:56:26.020Z,1.50
2022-09-04T06:58:11.256Z,1.33
2022-09-04T06:59:54.038Z,1.13
2022-09-04T07:01:21.095Z,1.52
2022-09-04T07:03:04.194Z,1.40
2022-09-04T07:04:52.404Z,1.17
2022-09-04T07:06:20.738Z,1.35
2022-09-04T07:07:53.304Z,1.70
2022-09-04T07:09:20.260Z,1.45
2022-09-04T07:10:47.043Z,1.58
2022-09-04T07:12:38.508Z,0.90
2022-09-04T07:14:20.120Z,1.30
2022-09-04T07:16:05.260Z,1.35
2022-09-04T07:17:32.240Z,1.73
2022-09-04T07:19:27.036Z,1.33
2022-09-04T07:21:02.249Z,1.40
2022-09-04T07:22:48.823Z,1.90
2022-09-04T07:24:33.353Z,1.60
2022-09-04T07:26:07.627Z,1.50
2022-09-04T07:27:45.746Z,1.67
2022-09-04T07:29:28.335Z,1.50
2022-09-04T07:30:54.898Z,1.77
2022-09-04T07:32:23.527Z,1.70
2022-09-04T07:33:54.001Z,1.80
2022-09-04T07:35:21.032Z,1.80
2022-09-04T07:36:49.721Z,1.80
2022-09-04T07:38:19.130Z,1.48
2022-09-04T07:39:49.302Z,1.60
2022-09-04T07:41:17.839Z,1.65
2022-09-04T07:42:48.842Z,1.70
2022-09-04T07:44:19.099Z,1.52
2022-09-04T07:45:47.328Z,1.77
2022-09-04T07:47:14.716Z,1.50
2022-09-04T07:48:41.916Z,1.95
2022-09-04T07:50:09.536Z,1.60
2022-09-04T07:51:36.121Z,1.67
2022-09-04T07:53:11.457Z,1.77
2022-09-04T07:54:47.960Z,1.90
2022-09-04T07:56:17.724Z,1.92
2022-09-04T07:58:14.838Z,1.55
2022-09-04T08:00:04.991Z,1.52
2022-09-04T08:01:41.276Z,1.75
2022-09-04T08:03:22.518Z,1.95
2022-09-04T08:05:27.595Z,1.85
2022-09-04T08:06:53.517Z,2.03
2022-09-04T08:08:52.424Z,1.80
2022-09-04T08:10:23.812Z,1.92
2022-09-04T08:11:55.891Z,1.83
2022-09-04T08:14:05.057Z,1.50
2022-09-04T08:15:40.955Z,1.90
2022-09-04T08:17:46.173Z,1.80
2022-09-04T08:19:20.823Z,1.55
2022-09-04T08:20:47.040Z,1.80
2022-09-04T08:22:14.259Z,1.90
2022-09-04T08:23:55.728Z,2.10
2022-09-04T08:25:26.944Z,1.95
2022-09-04T08:27:01.448Z,1.90
2022-09-04T08:28:46.646Z,1.98
2022-09-04T08:30:10.187Z,2.40
2022-09-04T08:31:36.871Z,2.20
2022-09-04T08:33:24.965Z,1.90
2022-09-04T08:35:07.104Z,1.80
2022-09-04T08:36:35.682Z,2.03
2022-09-04T08:38:11.615Z,1.70
2022-09-04T08:39:39.319Z,1.92
2022-09-04T08:41:42.723Z,1.95
2022-09-04T08:43:32.683Z,1.83
2022-09-04T08:45:32.339Z,1.90
2022-09-04T08:47:17.807Z,1.90
2022-09-04T08:49:11.647Z,1.88
2022-09-04T08:51:01.883Z,2.05
2022-09-04T08:53:03.746Z,2.08
2022-09-04T08:55:07.956Z,1.67
2022-09-04T08:56:37.885Z,1.73
2022-09-04T08:58:25.301Z,2.35
2022-09-04T09:00:08.776Z,1.77
2022-09-04T09:02:17.450Z,1.83
2022-09-04T09:04:22.851Z,2.00
2022-09-04T09:06:25.789Z,1.70
2022-09-04T09:08:21.789Z,1.85
2022-09-04T09:10:18.923Z,1.67
2022-09-04T09:12:07.354Z,2.08
2022-09-04T09:14:02.059Z,1.58
2022-09-04T09:15:59.692Z,1.63
2022-09-04T09:17:38.437Z,1.98
2022-09-04T09:19:22.866Z,1.80
2022-09-04T09:20:54.378Z,1.52
2022-09-04T09:22:45.217Z,1.80
2022-09-04T09:24:35.037Z,1.65
2022-09-04T09:26:12.522Z,1.90
2022-09-04T09:28:11.694Z,1.80
2022-09-04T09:29:54.292Z,1.65
2022-09-04T09:32:03.976Z,1.70
2022-09-04T09:33:56.444Z,1.90
2022-09-04T09:36:02.727Z,1.63
2022-09-04T09:38:00.022Z,1.80
2022-09-04T09:40:02.569Z,1.50
2022-09-04T09:42:07.925Z,1.80
2022-09-04T09:44:03.151Z,1.80
2022-09-04T09:46:07.813Z,1.70
2022-09-04T09:47:56.004Z,1.42
2022-09-04T09:49:51.630Z,1.45
2022-09-04T09:51:46.784Z,1.63
2022-09-04T09:53:38.589Z,1.30
2022-09-04T09:55:27.234Z,1.33
2022-09-04T09:57:16.833Z,1.20
2022-09-04T09:59:12.800Z,1.10
2022-09-04T10:00:46.434Z,1.55
2022-09-04T10:02:34.596Z,1.52
2022-09-04T10:04:28.405Z,1.20
2022-09-04T10:06:35.075Z,1.33
2022-09-04T10:08:35.893Z,1.38
2022-09-04T10:10:43.287Z,1.63
2022-09-04T10:12:50.104Z,1.50
2022-09-04T10:14:48.056Z,1.58
2022-09-04T10:16:49.570Z,1.92
2022-09-04T10:18:36.511Z,1.73
2022-09-04T10:20:40.626Z,1.40
2022-09-04T10:22:29.231Z,1.70
2022-09-04T10:24:29.282Z,1.77
2022-09-04T10:26:23.755Z,1.60
2022-09-04T10:28:15.706Z,1.70
2022-09-04T10:29:59.676Z,1.38
2022-09-04T10:31:44.818Z,1.58
2022-09-04T10:33:27.038Z,1.70
2022-09-04T10:35:03.214Z,1.50
2022-09-04T10:36:36.405Z,1.58
2022-09-04T10:38:23.422Z,1.60
2022-09-04T10:40:17.787Z,1.58
2022-09-04T10:41:59.498Z,1.65
2022-09-04T10:43:29.451Z,1.58
2022-09-04T10:45:10.907Z,1.90
2022-09-04T10:46:38.096Z,1.50
2022-09-04T10:48:30.976Z,1.70
2022-09-04T10:50:08.661Z,1.75
2022-09-04T10:51:56.305Z,1.70
2022-09-04T10:53:44.635Z,2.20
2022-09-04T10:55:36.325Z,1.83
2022-09-04T10:57:09.381Z,1.40
2022-09-04T10:58:58.129Z,1.85
2022-09-04T11:00:22.535Z,1.73
2022-09-04T11:02:32.980Z,1.85
2022-09-04T11:04:13.888Z,1.67
2022-09-04T11:06:08.687Z,1.42
2022-09-04T11:07:43.922Z,1.42
2022-09-04T11:09:56.111Z,1.70
2022-09-04T11:11:32.866Z,1.60
2022-09-04T11:13:22.643Z,1.70
2022-09-04T11:15:21.774Z,1.70
2022-09-04T11:17:00.857Z,1.33
2022-09-04T11:19:00.950Z,1.70
2022-09-04T11:20:59.500Z,1.67
2022-09-04T11:23:05.071Z,1.55
2022-09-04T11:25:07.181Z,1.80
2022-09-04T11:27:12.334Z,1.60
2022-09-04T11:28:52.248Z,1.42
2022-09-04T11:30:19.309Z,1.60
2022-09-04T11:31:58.060Z,1.55
2022-09-04T11:33:57.519Z,1.70
2022-09-04T11:35:59.407Z,1.42
2022-09-04T11:38:13.360Z,1.48
2022-09-04T11:40:11.988Z,1.55
2022-09-04T11:42:02.052Z,1.73
2022-09-04T11:43:44.324Z,1.50
2022-09-04T11:45:21.159Z,1.70
2022-09-04T11:47:12.166Z,1.75
2022-09-04T11:48:48.618Z,1.80
2022-09-04T11:50:35.143Z,1.73
2022-09-04T11:52:16.175Z,1.60
2022-09-04T11:54:00.359Z,1.60
2022-09-04T11:55:43.386Z,1.67
2022-09-04T11:57:15.505Z,1.67
2022-09-04T11:59:12.081Z,1.98
2022-09-04T12:00:43.440Z,1.50
2022-09-04T12:02:24.345Z,1.35
2022-09-04T12:04:11.833Z,2.17
2022-09-04T12:05:58.066Z,1.50
2022-09-04T12:07:38.046Z,2.03
2022-09-04T12:09:27.141Z,1.60
2022-09-04T12:11:09.657Z,1.80
2022-09-04T12:12:52.995Z,1.88
2022-09-04T12:14:29.979Z,1.52
2022-09-04T12:16:34.940Z,1.63
2022-09-04T12:18:41.283Z,1.63
2022-09-04T12:20:24.763Z,1.73
2022-09-04T12:22:31.126Z,1.80
2022-09-04T12:24:16.813Z,1.73
2022-09-04T12:26:23.654Z,1.50
2022-09-04T12:28:30.182Z,1.50
2022-09-04T12:30:13.309Z,1.83
2022-09-04T12:32:07.047Z,1.50
2022-09-04T12:34:00.956Z,1.80
2022-09-04T12:35:54.412Z,1.55
2022-09-04T12:37:43.626Z,1.65
2022-09-04T12:39:33.875Z,2.03
2022-09-04T12:41:04.351Z,1.50
2022-09-04T12:42:32.209Z,1.80
2022-09-04T12:44:05.933Z,1.58
2022-09-04T12:45:39.248Z,1.65
2022-09-04T12:47:14.090Z,1.80
2022-09-04T12:48:42.077Z,1.40
2022-09-04T12:50:21.951Z,1.55
2022-09-04T12:51:52.790Z,1.60
2022-09-04T12:53:34.593Z,1.27
2022-09-04T12:55:07.591Z,1.40
2022-09-04T12:56:43.302Z,1.50
2022-09-04T12:58:15.627Z,1.60
2022-09-04T12:59:50.022Z,0.95
2022-09-04T13:01:20.595Z,1.52
2022-09-04T13:02:50.928Z,1.42
2022-09-04T13:04:22.453Z,1.60
2022-09-04T13:06:03.976Z,1.67
2022-09-04T13:07:34.774Z,1.58
2022-09-04T13:09:12.720Z,1.40
2022-09-04T13:10:43.645Z,1.50
2022-09-04T13:12:15.635Z,1.48
2022-09-04T13:13:44.627Z,1.42
2022-09-04T13:15:28.659Z,1.20
2022-09-04T13:16:57.847Z,1.50
2022-09-04T13:18:33.281Z,1.90
2022-09-04T13:20:05.899Z,1.65
2022-09-04T13:21:49.934Z,1.70
2022-09-04T13:23:26.063Z,1.50
2022-09-04T13:24:57.812Z,1.60
2022-09-04T13:26:32.153Z,1.60
2022-09-04T13:28:05.209Z,1.67
2022-09-04T13:29:40.463Z,1.55
2022-09-04T13:31:28.562Z,1.48
2022-09-04T13:33:26.518Z,1.45
2022-09-04T13:35:00.307Z,1.40
2022-09-04T13:36:29.330Z,1.48
2022-09-04T13:38:06.620Z,2.00
2022-09-04T13:39:54.489Z,1.67
2022-09-04T13:41:54.667Z,1.70
2022-09-04T13:43:38.705Z,1.70
2022-09-04T13:45:06.578Z,1.65
2022-09-04T13:46:32.523Z,1.90
2022-09-04T13:48:00.436Z,1.70
2022-09-04T13:49:27.560Z,1.45
2022-09-04T13:50:54.980Z,1.40
2022-09-04T13:52:24.165Z,1.30
2022-09-04T13:53:57.218Z,1.35
2022-09-04T13:55:24.150Z,1.50
2022-09-04T13:56:52.272Z,1.40
2022-09-04T13:58:20.023Z,1.50
2022-09-04T13:59:44.316Z,1.70
2022-09-04T14:01:11.401Z,1.35
2022-09-04T14:02:36.997Z,1.55
2022-09-04T14:04:03.184Z,1.40
2022-09-04T14:05:29.921Z,1.80
2022-09-04T14:06:55.414Z,1.50
2022-09-04T14:08:21.112Z,1.42
2022-09-04T14:09:45.532Z,1.50
2022-09-04T14:11:47.952Z,1.75
2022-09-04T14:13:19.250Z,1.63
2022-09-04T14:15:19.347Z,1.40
2022-09-04T14:16:44.227Z,1.60
2022-09-04T14:18:20.506Z,1.70
2022-09-04T14:19:53.439Z,1.52
2022-09-04T14:21:30.505Z,1.65
2022-09-04T14:23:03.685Z,1.67
2022-09-04T14:24:32.839Z,1.60
2022-09-04T14:25:59.768Z,1.33
2022-09-04T14:27:28.555Z,1.50
2022-09-04T14:28:57.368Z,1.55
2022-09-04T14:30:22.232Z,1.77
2022-09-04T14:31:52.245Z,1.45
2022-09-04T14:33:23.130Z,1.33
2022-09-04T14:34:56.226Z,1.50
2022-09-04T14:36:34.249Z,1.63
2022-09-04T14:38:24.133Z,1.70
2022-09-04T14:39:50.479Z,1.58
2022-09-04T14:41:32.813Z,1.30
2022-09-04T14:43:09.729Z,1.67
2022-09-04T14:44:42.591Z,1.38
2022-09-04T14:46:13.192Z,1.75
2022-09-04T14:47:42.289Z,1.48
2022-09-04T14:49:08.752Z,2.15
2022-09-04T14:50:34.614Z,1.80
2022-09-04T14:52:04.009Z,1.38
2022-09-04T14:53:31.760Z,1.88
2022-09-04T14:54:57.765Z,2.22
2022-09-04T14:56:32.400Z,1.52
2022-09-04T14:57:59.357Z,1.48
2022-09-04T14:59:26.357Z,1.70
2022-09-04T15:00:57.384Z,1.70
2022-09-04T15:02:27.159Z,1.60
2022-09-04T15:03:55.452Z,1.50
2022-09-04T15:05:23.772Z,1.40
2022-09-04T15:07:10.388Z,2.00
2022-09-04T15:08:40.610Z,2.13
2022-09-04T15:10:11.943Z,1.80
2022-09-04T15:11:36.034Z,1.55
2022-09-04T15:13:41.719Z,1.27
2022-09-04T15:15:10.448Z,1.65
2022-09-04T15:16:49.311Z,1.60
2022-09-04T15:18:16.023Z,1.90
2022-09-04T15:19:47.931Z,1.90
2022-09-04T15:21:19.403Z,1.80
2022-09-04T15:22:48.111Z,1.70
2022-09-04T15:24:21.234Z,1.75
2022-09-04T15:25:59.779Z,1.67
2022-09-04T15:27:28.954Z,1.73
2022-09-04T15:28:53.396Z,1.60
2022-09-04T15:30:22.151Z,1.40
2022-09-04T15:31:44.907Z,1.58
2022-09-04T15:33:09.902Z,1.70
2022-09-04T15:34:33.365Z,1.50
2022-09-04T15:36:04.543Z,1.85
2022-09-04T15:37:29.133Z,1.58
2022-09-04T15:38:54.814Z,1.42
2022-09-04T15:40:29.046Z,1.50
2022-09-04T15:41:52.487Z,1.60
2022-09-04T15:43:22.771Z,1.77
2022-09-04T15:44:48.186Z,1.73
2022-09-04T15:46:21.154Z,2.08
2022-09-04T15:48:03.365Z,1.83
2022-09-04T15:49:32.931Z,1.60
2022-09-04T15:51:03.853Z,1.58
2022-09-04T15:52:38.237Z,1.67
2022-09-04T15:54:15.705Z,1.50
2022-09-04T15:55:42.666Z,1.90
2022-09-04T15:57:10.396Z,1.40
2022-09-04T15:58:39.845Z,1.90
2022-09-04T16:00:09.749Z,1.55
2022-09-04T16:01:40.109Z,1.60
2022-09-04T16:03:12.022Z,2.08
2022-09-04T16:04:40.736Z,1.80
2022-09-04T16:06:06.387Z,1.65
2022-09-04T16:07:40.675Z,1.80
2022-09-04T16:09:08.964Z,1.83
2022-09-04T16:10:47.786Z,1.48
2022-09-04T16:12:16.883Z,1.73
2022-09-04T16:13:58.059Z,1.50
2022-09-04T16:15:30.586Z,1.70
2022-09-04T16:16:56.922Z,2.05
2022-09-04T16:18:22.295Z,1.58
2022-09-04T16:19:50.043Z,1.90
2022-09-04T16:21:24.522Z,1.70
2022-09-04T16:22:52.016Z,1.58
2022-09-04T16:24:17.367Z,1.50
2022-09-04T16:25:43.270Z,1.33
2022-09-04T16:27:12.611Z,1.80
2022-09-04T16:28:37.835Z,2.00
2022-09-04T16:30:03.403Z,1.60
2022-09-04T16:31:31.697Z,1.42
2022-09-04T16:32:55.199Z,1.83
2022-09-04T16:34:24.419Z,1.35
2022-09-04T16:35:48.728Z,1.63
2022-09-04T16:37:14.679Z,1.70
2022-09-04T16:38:47.310Z,1.75
2022-09-04T16:40:24.277Z,1.88
2022-09-04T16:41:50.290Z,1.60
2022-09-04T16:43:22.718Z,1.48
2022-09-04T16:44:51.264Z,1.83
2022-09-04T16:46:27.433Z,1.30
2022-09-04T16:47:55.512Z,1.50
2022-09-04T16:49:23.951Z,1.63
2022-09-04T16:50:52.252Z,1.73
2022-09-04T16:52:44.683Z,1.52
2022-09-04T16:54:11.867Z,1.90
2022-09-04T16:55:39.419Z,2.20
2022-09-04T16:57:13.698Z,2.10
2022-09-04T16:58:46.066Z,1.90
2022-09-04T17:00:11.474Z,1.70
2022-09-04T17:01:44.705Z,1.58
2022-09-04T17:03:18.807Z,1.80
2022-09-04T17:04:47.820Z,2.10
2022-09-04T17:06:18.839Z,1.83
2022-09-04T17:07:48.254Z,1.80
2022-09-04T17:09:21.569Z,1.63
2022-09-04T17:10:47.638Z,2.00
2022-09-04T17:12:30.538Z,1.70
2022-09-04T17:14:05.287Z,1.98
2022-09-04T17:15:35.869Z,1.70
2022-09-04T17:17:31.351Z,1.70
2022-09-04T17:18:56.629Z,1.85
2022-09-04T17:20:47.171Z,1.55
2022-09-04T17:28:14.904Z,2.10
2022-09-04T17:28:57.816Z,2.13
2022-09-04T17:29:16.210Z,1.70
2022-09-04T17:29:19.623Z,1.90
2022-09-04T17:30:01.251Z,2.00
2022-09-04T17:31:29.993Z,1.80
2022-09-04T17:37:42.022Z,1.75
2022-09-04T17:40:33.803Z,2.20
2022-09-04T17:40:36.078Z,1.70
2022-09-04T17:40:54.113Z,1.90
2022-09-04T17:40:54.444Z,2.00
2022-09-04T17:42:10.514Z,2.10
2022-09-04T17:43:42.590Z,2.22
2022-09-04T17:45:12.872Z,2.45
2022-09-04T17:46:39.036Z,2.13
2022-09-04T17:48:06.380Z,2.15
2022-09-04T17:49:35.245Z,1.77
2022-09-04T17:51:00.972Z,2.42
2022-09-04T17:52:26.926Z,1.88
2022-09-04T17:53:53.996Z,2.38
2022-09-04T17:55:17.466Z,2.00
2022-09-04T17:56:44.722Z,2.10
2022-09-04T17:58:10.404Z,2.22
2022-09-04T17:59:40.455Z,2.30
2022-09-04T18:01:14.485Z,2.20
2022-09-04T18:02:45.782Z,1.98
2022-09-04T18:04:21.077Z,2.30
2022-09-04T18:05:53.824Z,2.40
2022-09-04T18:08:06.786Z,1.83
2022-09-04T18:09:13.157Z,2.30
2022-09-04T18:10:49.453Z,2.20
2022-09-04T18:12:18.658Z,2.20
2022-09-04T18:13:52.067Z,2.35
2022-09-04T18:15:33.159Z,2.33
2022-09-04T18:17:12.520Z,2.33
2022-09-04T18:18:39.937Z,2.78
2022-09-04T18:20:10.339Z,2.35
2022-09-04T18:21:41.314Z,2.35
2022-09-04T18:23:30.737Z,2.50
2022-09-04T18:24:58.179Z,2.58
2022-09-04T18:26:38.494Z,2.45
2022-09-04T18:28:12.242Z,2.40
2022-09-04T18:32:13.496Z,2.15
2022-09-04T18:37:09.174Z,2.40
2022-09-04T18:37:10.820Z,2.22
2022-09-04T18:37:23.989Z,2.25
2022-09-04T18:37:26.558Z,2.28
2022-09-04T18:38:51.655Z,2.55
2022-09-04T18:45:14.898Z,2.80
2022-09-04T18:50:20.271Z,2.33
2022-09-04T18:50:29.133Z,2.30
2022-09-04T18:50:30.656Z,2.65
2022-09-04T18:50:36.248Z,2.25
2022-09-04T18:50:48.705Z,2.50
2022-09-04T18:51:25.130Z,2.58
2022-09-04T18:52:54.593Z,2.65
2022-09-04T18:54:23.512Z,2.53
2022-09-04T18:55:49.861Z,2.30
2022-09-04T18:57:24.743Z,2.25
2022-09-04T18:58:55.679Z,2.35
2022-09-04T19:00:26.424Z,2.47
2022-09-04T19:01:56.489Z,2.40
2022-09-04T19:03:21.451Z,2.55
2022-09-04T19:04:55.992Z,2.25
2022-09-04T19:06:31.839Z,2.30
2022-09-04T19:07:59.025Z,2.30
2022-09-04T19:09:26.644Z,2.05
2022-09-04T19:10:52.248Z,2.50
2022-09-04T19:12:20.330Z,2.50
2022-09-04T19:13:48.882Z,2.60
2022-09-04T19:15:36.258Z,2.47
2022-09-04T19:17:06.423Z,2.67
2022-09-04T19:18:43.669Z,2.15
2022-09-04T19:20:12.739Z,2.30
2022-09-04T19:21:40.777Z,2.65
2022-09-04T19:23:15.420Z,2.20
2022-09-04T19:24:43.533Z,2.35
2022-09-04T19:26:10.169Z,2.40
2022-09-04T19:27:37.615Z,2.67
2022-09-04T19:29:07.343Z,2.50
2022-09-04T19:30:35.146Z,2.60
2022-09-04T19:32:00.958Z,2.47
2022-09-04T19:33:31.749Z,2.45
2022-09-04T19:35:04.537Z,2.15
2022-09-04T19:36:35.149Z,2.35
2022-09-04T19:43:29.125Z,2.58
2022-09-04T19:45:18.621Z,2.63
2022-09-04T19:45:54.335Z,2.40
2022-09-04T19:46:04.663Z,2.40
2022-09-04T19:46:13.431Z,2.55
2022-09-04T19:47:02.012Z,2.83
2022-09-04T19:48:37.564Z,2.58
2022-09-04T19:53:22.117Z,2.50
2022-09-04T19:53:36.807Z,2.67
2022-09-04T19:54:07.525Z,2.58
2022-09-04T19:55:40.470Z,2.63
2022-09-04T19:57:32.626Z,2.25
2022-09-04T19:59:02.021Z,2.70
2022-09-04T20:00:43.428Z,2.50
2022-09-04T20:02:21.218Z,1.95
2022-09-04T20:03:49.852Z,2.97
2022-09-04T20:05:22.431Z,3.10
2022-09-04T20:06:50.781Z,2.70
2022-09-04T20:08:21.197Z,2.35
2022-09-04T20:09:48.080Z,2.22
2022-09-04T20:11:34.634Z,2.58
2022-09-04T20:13:09.039Z,3.10
2022-09-04T20:14:37.170Z,2.70
2022-09-04T20:16:02.583Z,2.60
2022-09-04T20:17:51.891Z,2.97
2022-09-04T20:19:27.615Z,3.03
2022-09-04T20:20:56.224Z,2.83
2022-09-04T20:22:29.922Z,2.40
2022-09-04T20:23:59.463Z,2.70
2022-09-04T20:25:40.628Z,2.80
2022-09-04T20:27:15.475Z,2.60
2022-09-04T20:28:48.713Z,2.67
2022-09-04T20:30:14.311Z,2.72
2022-09-04T20:31:46.429Z,2.90
2022-09-04T20:33:14.547Z,2.63
2022-09-04T20:34:44.638Z,2.60
2022-09-04T20:36:10.032Z,2.78
2022-09-04T20:37:35.653Z,2.75
2022-09-04T20:39:04.260Z,2.40
2022-09-04T20:40:31.479Z,2.58
2022-09-04T20:42:00.206Z,3.30
2022-09-04T20:43:31.634Z,2.80
2022-09-04T20:47:48.061Z,2.83
2022-09-04T20:52:43.580Z,2.78
2022-09-04T20:52:55.658Z,2.60
2022-09-04T20:52:58.240Z,2.60
2022-09-04T20:53:05.583Z,2.67
2022-09-04T20:54:28.402Z,2.70
2022-09-04T20:56:31.607Z,2.67
2022-09-04T21:03:10.465Z,2.58
2022-09-04T21:03:14.758Z,3.03
2022-09-04T21:03:22.836Z,2.58
2022-09-04T21:03:56.975Z,2.47
2022-09-04T21:05:59.852Z,2.90
2022-09-04T21:07:33.851Z,3.22
2022-09-04T21:09:05.387Z,2.75
2022-09-04T21:10:34.539Z,2.60
2022-09-04T21:12:11.803Z,3.10
2022-09-04T21:13:38.539Z,2.53
2022-09-04T21:15:10.662Z,2.90
2022-09-04T21:16:39.376Z,3.28
2022-09-04T21:18:22.010Z,2.60
2022-09-04T21:20:33.571Z,2.97
2022-09-04T21:22:21.690Z,2.63
2022-09-04T21:24:29.306Z,2.90
2022-09-04T21:26:02.816Z,2.45
2022-09-04T21:27:46.765Z,2.70
2022-09-04T21:29:33.952Z,3.00
2022-09-04T21:31:13.217Z,3.28
2022-09-04T21:33:26.732Z,2.72
2022-09-04T21:35:03.020Z,2.63